Watson, Canada
Current Conditions -  °F | °C
As of 3:00 AM on Friday 31 Oct 2014 (Local Time) from CYBU Reporting Station
Clear Clear  
Wind Chill: 13°   Ceiling: Unl
Heat Index: 23°   Visibility: 9mi
Dew Point: 19°   Wind: 9mph
Humidity: 86%   Direction: 150°SSE
Pressure: 30.34"   Gusts: NA
Location:  52.13°N, 104.53°W
Report Text: CYBU 310900Z AUTO 15008KT 9SM CLR M05/M07 A3034 RMK SLP298
Loading
Personal Weather Stations






























Interactive Weather Map
Tropical Storm Tracking
New forecast layout! Learn more

10-Day Weather Forecast

Advertisements
Track Severe Weather on mobile